Time,TemperatureF,DewpointF,PressureIn,WindDirection,WindDirectionDegrees,WindSpeedMPH,WindSpeedGustMPH,Humidity,HourlyPrecipIn,Conditions,Clouds,dailyrainin,SolarRadiationWatts/m^2,SoftwareType,DateUTC
2013-12-25 00:01:00,65.6,61.0,29.96,East,83,7.0,12.0,85,0.00,CLR,SCT,0.00,0.0,WeatherDisplay:10.37,2013-12-25 10:01:00,
2013-12-25 00:10:00,65.4,60.8,29.95,East,80,6.0,14.0,85,0.00,CLR,SCT,0.00,0.0,WeatherDisplay:10.37,2013-12-25 10:10:00,
2013-12-25 00:20:00,65.2,60.2,29.94,East,81,7.0,16.0,84,0.00,CLR,SCT,0.00,0.0,WeatherDisplay:10.37,2013-12-25 10:20:00,
2013-12-25 00:31:00,65.2,60.6,29.94,East,82,7.0,15.0,85,0.00,CLR,SCT,0.00,0.0,WeatherDisplay:10.37,2013-12-25 10:31:00,
2013-12-25 00:40:00,65.2,60.2,29.94,East,94,7.0,15.0,84,0.00,CLR,SCT,0.00,0.0,WeatherDisplay:10.37,2013-12-25 10:40:00,
2013-12-25 00:50:00,65.3,60.3,29.94,East,89,5.0,16.0,84,0.00,CLR,SCT,0.00,0.0,WeatherDisplay:10.37,2013-12-25 10:50:00,
2013-12-25 01:01:00,65.3,60.0,29.94,East,91,8.0,17.0,83,0.00,CLR,SCT,0.00,0.0,WeatherDisplay:10.37,2013-12-25 11:01:00,
2013-12-25 01:10:00,65.5,59.9,29.94,East,82,6.0,14.0,82,0.00,CLR,SCT,0.00,0.0,WeatherDisplay:10.37,2013-12-25 11:10:00,
2013-12-25 01:20:00,65.2,59.6,29.93,East,84,6.0,12.0,82,0.00,CLR,SCT,0.00,0.0,WeatherDisplay:10.37,2013-12-25 11:20:00,
2013-12-25 01:31:00,65.3,59.3,29.93,East,90,10.0,15.0,81,0.00,CLR,SCT,0.00,0.0,WeatherDisplay:10.37,2013-12-25 11:31:00,
2013-12-25 01:40:00,65.4,59.1,29.93,East,85,5.0,15.0,80,0.00,CLR,SCT,0.00,0.0,WeatherDisplay:10.37,2013-12-25 11:40:00,
2013-12-25 01:50:00,65.1,59.1,29.93,ENE,74,7.0,12.0,81,0.00,CLR,SCT,0.00,0.0,WeatherDisplay:10.37,2013-12-25 11:50:00,
2013-12-25 02:01:00,65.2,58.9,29.93,ENE,72,9.0,16.0,80,0.00,CLR,SCT,0.00,0.0,WeatherDisplay:10.37,2013-12-25 12:01:00,
2013-12-25 02:10:00,65.2,58.6,29.93,ENE,77,6.0,15.0,79,0.00,CLR,SCT,0.00,0.0,WeatherDisplay:10.37,2013-12-25 12:10:00,
2013-12-25 02:20:00,64.9,58.9,29.92,ENE,69,6.0,20.0,81,0.00,CLR,SCT,0.00,0.0,WeatherDisplay:10.37,2013-12-25 12:20:00,
2013-12-25 02:31:00,65.0,60.0,29.92,ENE,72,10.0,20.0,84,0.00,CLR,SCT,0.00,0.0,WeatherDisplay:10.37,2013-12-25 12:31:00,
2013-12-25 02:40:00,64.9,59.9,29.92,ENE,76,7.0,14.0,84,0.00,CLR,SCT,0.00,0.0,WeatherDisplay:10.37,2013-12-25 12:40:00,
2013-12-25 02:50:00,65.2,59.2,29.91,East,81,8.0,14.0,81,0.00,CLR,SCT,0.00,0.0,WeatherDisplay:10.37,2013-12-25 12:50:00,
2013-12-25 03:01:00,65.6,59.3,29.91,ENE,69,7.0,17.0,80,0.00,CLR,SCT,0.00,0.0,WeatherDisplay:10.37,2013-12-25 13:01:00,
2013-12-25 03:10:00,65.3,59.0,29.91,East,83,8.0,14.0,80,0.00,SCT,SCT,0.00,0.0,WeatherDisplay:10.37,2013-12-25 13:10:00,
2013-12-25 03:20:00,65.2,59.9,29.92,East,80,6.0,15.0,83,0.00,SCT,SCT,0.00,0.0,WeatherDisplay:10.37,2013-12-25 13:20:00,
2013-12-25 03:31:00,65.1,60.1,29.92,East,81,7.0,13.0,84,0.00,SCT,SCT,0.00,0.0,WeatherDisplay:10.37,2013-12-25 13:31:00,
2013-12-25 03:40:00,65.3,59.3,29.91,East,84,9.0,15.0,81,0.00,SCT,SCT,0.00,0.0,WeatherDisplay:10.37,2013-12-25 13:40:00,
2013-12-25 03:50:00,65.6,59.3,29.91,East,82,8.0,17.0,80,0.00,SCT,SCT,0.00,0.0,WeatherDisplay:10.37,2013-12-25 13:50:00,
2013-12-25 04:01:00,65.6,59.9,29.92,ENE,75,9.0,17.0,82,0.00,SCT,SCT,0.00,0.0,WeatherDisplay:10.37,2013-12-25 14:01:00,
2013-12-25 04:10:00,65.1,60.1,29.92,ENE,78,7.0,14.0,84,0.00,BKN,SCT,0.00,0.0,WeatherDisplay:10.37,2013-12-25 14:10:00,
2013-12-25 04:20:00,64.8,59.9,29.92,ENE,76,12.0,15.0,84,0.00,BKN,SCT,0.00,0.0,WeatherDisplay:10.37,2013-12-25 14:20:00,
2013-12-25 04:31:00,65.0,60.0,29.91,ENE,75,7.0,15.0,84,0.00,BKN,SCT,0.00,0.0,WeatherDisplay:10.37,2013-12-25 14:31:00,
2013-12-25 04:40:00,65.2,59.9,29.92,East,84,7.0,12.0,83,0.00,BKN,SCT,0.00,0.0,WeatherDisplay:10.37,2013-12-25 14:40:00,
2013-12-25 04:50:00,65.3,60.0,29.92,ENE,78,6.0,12.0,83,0.00,BKN,SCT,0.00,0.0,WeatherDisplay:10.37,2013-12-25 14:50:00,
2013-12-25 05:01:00,65.4,59.8,29.92,East,79,7.0,13.0,82,0.00,BKN,SCT,0.00,0.0,WeatherDisplay:10.37,2013-12-25 15:01:00,
2013-12-25 05:11:00,65.3,60.0,29.92,East,81,9.0,13.0,83,0.00,FEW,SCT,0.00,0.0,WeatherDisplay:10.37,2013-12-25 15:11:00,
2013-12-25 05:20:00,65.3,60.0,29.92,ENE,77,6.0,15.0,83,0.00,FEW,SCT,0.00,0.0,WeatherDisplay:10.37,2013-12-25 15:20:00,
2013-12-25 05:31:00,65.3,60.3,29.93,East,81,7.0,14.0,84,0.00,FEW,SCT,0.00,0.0,WeatherDisplay:10.37,2013-12-25 15:31:00,
2013-12-25 05:41:00,65.2,59.9,29.93,ENE,73,6.0,12.0,83,0.00,FEW,SCT,0.00,0.0,WeatherDisplay:10.37,2013-12-25 15:41:00,
2013-12-25 05:51:00,65.0,59.7,29.94,ENE,75,7.0,12.0,83,0.00,FEW,SCT,0.00,0.0,WeatherDisplay:10.37,2013-12-25 15:51:00,
2013-12-25 06:01:00,64.9,59.3,29.94,East,83,5.0,17.0,82,0.00,FEW,SCT,0.00,0.0,WeatherDisplay:10.37,2013-12-25 16:01:00,
2013-12-25 06:10:00,65.2,59.6,29.94,ENE,78,6.0,13.0,82,0.00,CLR,SCT,0.00,0.0,WeatherDisplay:10.37,2013-12-25 16:10:00,
2013-12-25 06:20:00,65.2,59.2,29.94,ENE,74,5.0,13.0,81,0.00,CLR,SCT,0.00,0.0,WeatherDisplay:10.37,2013-12-25 16:20:00,
2013-12-25 06:31:00,65.4,58.4,29.95,East,86,5.0,12.0,78,0.00,CLR,SCT,0.00,0.0,WeatherDisplay:10.37,2013-12-25 16:31:00,
2013-12-25 06:41:00,65.7,58.3,29.95,ENE,74,6.0,13.0,77,0.00,CLR,SCT,0.00,0.0,WeatherDisplay:10.37,2013-12-25 16:41:00,
2013-12-25 06:51:00,65.3,58.6,29.95,ENE,69,5.0,9.0,79,0.00,CLR,SCT,0.00,0.0,WeatherDisplay:10.37,2013-12-25 16:51:00,
2013-12-25 07:01:00,64.7,58.4,29.95,ENE,65,7.0,10.0,80,0.00,CLR,SCT,0.00,0.0,WeatherDisplay:10.37,2013-12-25 17:01:00,
2013-12-25 07:11:00,64.3,58.0,29.95,ENE,76,5.0,13.0,80,0.00,FEW,SCT,0.00,0.3,WeatherDisplay:10.37,2013-12-25 17:11:00,
2013-12-25 07:21:00,64.5,57.8,29.95,ENE,76,6.0,14.0,79,0.00,FEW,SCT,0.00,1.2,WeatherDisplay:10.37,2013-12-25 17:21:00,
2013-12-25 07:31:00,65.0,58.7,29.96,ENE,68,8.0,14.0,80,0.00,FEW,SCT,0.00,2.4,WeatherDisplay:10.37,2013-12-25 17:31:00,
2013-12-25 07:41:00,65.5,58.8,29.97,ENE,77,8.0,14.0,79,0.00,FEW,SCT,0.00,3.7,WeatherDisplay:10.37,2013-12-25 17:41:00,
2013-12-25 07:51:00,66.0,59.3,29.97,ENE,72,10.0,17.0,79,0.00,FEW,SCT,0.00,5.1,WeatherDisplay:10.37,2013-12-25 17:51:00,
2013-12-25 08:01:00,67.0,60.6,29.97,East,82,9.0,18.0,80,0.00,FEW,SCT,0.00,7.2,WeatherDisplay:10.37,2013-12-25 18:01:00,
2013-12-25 08:11:00,68.2,61.1,29.98,ENE,76,5.0,12.0,78,0.00,FEW,SCT,0.00,66.3,WeatherDisplay:10.37,2013-12-25 18:11:00,
2013-12-25 08:21:00,68.7,61.2,29.98,ENE,70,6.0,12.0,77,0.00,FEW,SCT,0.00,88.9,WeatherDisplay:10.37,2013-12-25 18:21:00,
2013-12-25 08:31:00,69.0,61.1,29.98,ENE,73,7.0,18.0,76,0.00,FEW,SCT,0.00,110.6,WeatherDisplay:10.37,2013-12-25 18:31:00,
2013-12-25 08:41:00,69.4,61.9,29.98,ENE,68,7.0,14.0,77,0.00,FEW,SCT,0.00,132.1,WeatherDisplay:10.37,2013-12-25 18:41:00,
2013-12-25 08:51:00,69.4,62.2,29.98,ENE,73,7.0,14.0,78,0.00,FEW,SCT,0.00,157.1,WeatherDisplay:10.37,2013-12-25 18:51:00,
2013-12-25 09:01:00,69.9,62.0,29.98,ENE,74,9.0,16.0,76,0.00,FEW,SCT,0.00,181.4,WeatherDisplay:10.37,2013-12-25 19:01:00,
2013-12-25 09:11:00,70.6,63.1,29.98,ENE,65,7.0,16.0,77,0.00,FEW,SCT,0.00,206.2,WeatherDisplay:10.37,2013-12-25 19:11:00,
2013-12-25 09:21:00,71.2,63.3,29.98,ENE,69,6.0,21.0,76,0.00,FEW,SCT,0.00,234.7,WeatherDisplay:10.37,2013-12-25 19:21:00,
2013-12-25 09:31:00,71.7,63.7,29.98,ENE,70,9.0,21.0,76,0.00,FEW,SCT,0.00,262.4,WeatherDisplay:10.37,2013-12-25 19:31:00,
2013-12-25 09:41:00,72.0,64.0,29.99,ENE,72,7.0,18.0,76,0.00,FEW,SCT,0.00,289.6,WeatherDisplay:10.37,2013-12-25 19:41:00,
2013-12-25 09:51:00,72.5,64.1,29.98,East,96,3.0,15.0,75,0.00,FEW,SCT,0.00,315.7,WeatherDisplay:10.37,2013-12-25 19:51:00,
2013-12-25 10:01:00,73.1,63.6,29.98,East,82,7.0,15.0,72,0.00,FEW,SCT,0.00,343.6,WeatherDisplay:10.37,2013-12-25 20:01:00,
2013-12-25 10:11:00,73.4,64.2,29.98,ENE,68,7.0,18.0,73,0.00,FEW,SCT,0.00,368.9,WeatherDisplay:10.37,2013-12-25 20:11:00,
2013-12-25 10:21:00,73.5,63.9,29.98,ENE,70,9.0,15.0,72,0.00,FEW,SCT,0.00,395.3,WeatherDisplay:10.37,2013-12-25 20:21:00,
2013-12-25 10:31:00,73.7,63.7,29.97,ENE,69,7.0,23.0,71,0.00,FEW,SCT,0.00,419.6,WeatherDisplay:10.37,2013-12-25 20:31:00,
2013-12-25 10:41:00,74.2,63.4,29.97,ENE,77,7.0,16.0,69,0.00,FEW,SCT,0.00,441.0,WeatherDisplay:10.37,2013-12-25 20:41:00,
2013-12-25 10:51:00,74.7,63.0,29.96,ENE,75,9.0,18.0,67,0.00,FEW,SCT,0.00,468.0,WeatherDisplay:10.37,2013-12-25 20:51:00,
2013-12-25 11:01:00,74.8,63.9,29.96,ENE,72,9.0,17.0,69,0.00,FEW,SCT,0.00,589.5,WeatherDisplay:10.37,2013-12-25 21:01:00,
2013-12-25 11:11:00,75.1,65.1,29.96,ENE,68,5.0,17.0,71,0.00,SCT,SCT,0.00,707.4,WeatherDisplay:10.37,2013-12-25 21:11:00,
2013-12-25 11:21:00,75.4,64.5,29.95,ENE,58,8.0,15.0,69,0.00,SCT,SCT,0.00,545.3,WeatherDisplay:10.37,2013-12-25 21:21:00,
2013-12-25 11:31:00,75.6,65.1,29.95,ENE,67,12.0,20.0,70,0.00,SCT,SCT,0.00,564.3,WeatherDisplay:10.37,2013-12-25 21:31:00,
2013-12-25 11:41:00,75.9,65.8,29.95,ENE,74,10.0,20.0,71,0.00,SCT,SCT,0.00,594.7,WeatherDisplay:10.37,2013-12-25 21:41:00,
2013-12-25 11:51:00,75.8,64.4,29.95,ENE,63,8.0,20.0,68,0.00,SCT,SCT,0.00,672.6,WeatherDisplay:10.37,2013-12-25 21:51:00,
2013-12-25 12:01:00,75.8,64.9,29.95,ENE,66,8.0,16.0,69,0.00,SCT,SCT,0.00,816.2,WeatherDisplay:10.37,2013-12-25 22:01:00,
2013-12-25 12:11:00,75.5,65.4,29.94,ENE,60,10.0,22.0,71,0.00,SCT,SCT,0.00,1189.8,WeatherDisplay:10.37,2013-12-25 22:11:00,
2013-12-25 12:21:00,75.7,65.2,29.94,NE,53,9.0,21.0,70,0.00,SCT,SCT,0.00,1294.1,WeatherDisplay:10.37,2013-12-25 22:21:00,
2013-12-25 12:31:00,75.3,65.6,29.93,ENE,65,10.0,21.0,72,0.00,SCT,SCT,0.00,1320.8,WeatherDisplay:10.37,2013-12-25 22:31:00,
2013-12-25 12:41:00,75.2,65.5,29.92,ENE,60,12.0,22.0,72,0.00,SCT,SCT,0.00,1299.7,WeatherDisplay:10.37,2013-12-25 22:41:00,
2013-12-25 12:51:00,75.6,66.0,29.92,NE,54,12.0,20.0,72,0.00,SCT,SCT,0.00,1104.6,WeatherDisplay:10.37,2013-12-25 22:51:00,
2013-12-25 13:01:00,75.8,66.1,29.91,NE,56,8.0,20.0,72,0.00,SCT,SCT,0.00,1235.0,WeatherDisplay:10.37,2013-12-25 23:01:00,
2013-12-25 13:11:00,75.8,66.1,29.91,ENE,63,8.0,17.0,72,0.00,SCT,SCT,0.00,1224.6,WeatherDisplay:10.37,2013-12-25 23:11:00,
2013-12-25 13:21:00,75.9,66.2,29.90,ENE,58,7.0,16.0,72,0.00,SCT,SCT,0.00,1160.6,WeatherDisplay:10.37,2013-12-25 23:21:00,
2013-12-25 13:31:00,75.7,66.0,29.89,ENE,58,15.0,20.0,72,0.00,SCT,SCT,0.00,1121.9,WeatherDisplay:10.37,2013-12-25 23:31:00,
2013-12-25 13:41:00,75.9,66.2,29.90,ENE,70,10.0,20.0,72,0.00,SCT,SCT,0.00,1073.1,WeatherDisplay:10.37,2013-12-25 23:41:00,
2013-12-25 13:51:00,75.4,66.5,29.89,ENE,62,10.0,20.0,74,0.00,SCT,SCT,0.00,1004.7,WeatherDisplay:10.37,2013-12-25 23:51:00,
2013-12-25 14:01:00,75.8,66.5,29.89,ENE,69,10.0,17.0,73,0.00,SCT,SCT,0.00,688.7,WeatherDisplay:10.37,2013-12-26 00:01:00,
2013-12-25 14:11:00,75.4,65.7,29.89,ENE,70,9.0,24.0,72,0.00,SCT,SCT,0.00,467.9,WeatherDisplay:10.37,2013-12-26 00:11:00,
2013-12-25 14:21:00,75.6,65.5,29.89,ENE,60,15.0,22.0,71,0.00,SCT,SCT,0.00,431.7,WeatherDisplay:10.37,2013-12-26 00:21:00,
2013-12-25 14:31:00,75.8,66.1,29.89,ENE,62,10.0,18.0,72,0.00,SCT,SCT,0.00,399.5,WeatherDisplay:10.37,2013-12-26 00:31:00,
2013-12-25 14:41:00,75.5,66.2,29.89,ENE,61,12.0,25.0,73,0.00,SCT,SCT,0.00,373.9,WeatherDisplay:10.37,2013-12-26 00:41:00,
2013-12-25 14:51:00,75.6,66.3,29.89,ENE,67,9.0,16.0,73,0.00,SCT,SCT,0.00,347.0,WeatherDisplay:10.37,2013-12-26 00:51:00,
2013-12-25 15:01:00,75.5,64.6,29.88,ENE,71,10.0,16.0,69,0.00,SCT,SCT,0.00,321.2,WeatherDisplay:10.37,2013-12-26 01:01:00,
2013-12-25 15:11:00,74.9,64.9,29.88,ENE,64,13.0,23.0,71,0.00,SCT,SCT,0.00,301.1,WeatherDisplay:10.37,2013-12-26 01:11:00,
2013-12-25 15:21:00,75.1,65.5,29.88,ENE,69,9.0,21.0,72,0.00,SCT,SCT,0.00,269.2,WeatherDisplay:10.37,2013-12-26 01:21:00,
2013-12-25 15:31:00,75.0,65.3,29.88,ENE,64,12.0,18.0,72,0.00,SCT,SCT,0.00,249.8,WeatherDisplay:10.37,2013-12-26 01:31:00,
2013-12-25 15:41:00,75.1,66.2,29.88,NE,47,10.0,17.0,74,0.00,SCT,SCT,0.00,218.2,WeatherDisplay:10.37,2013-12-26 01:41:00,
2013-12-25 15:51:00,74.6,66.1,29.89,ENE,73,6.0,15.0,75,0.00,SCT,SCT,0.00,260.7,WeatherDisplay:10.37,2013-12-26 01:51:00,
2013-12-25 16:01:00,74.5,66.0,29.89,ENE,64,9.0,17.0,75,0.00,SCT,SCT,0.00,173.0,WeatherDisplay:10.37,2013-12-26 02:01:00,
2013-12-25 16:11:00,73.3,65.3,29.89,ENE,67,10.0,16.0,76,0.00,SCT,SCT,0.00,144.5,WeatherDisplay:10.37,2013-12-26 02:11:00,
2013-12-25 16:21:00,72.6,65.0,29.89,ENE,64,10.0,15.0,77,0.00,SCT,SCT,0.00,120.6,WeatherDisplay:10.37,2013-12-26 02:21:00,
2013-12-25 16:31:00,72.2,64.6,29.88,ENE,64,12.0,15.0,77,0.00,SCT,SCT,0.00,99.3,WeatherDisplay:10.37,2013-12-26 02:31:00,
2013-12-25 16:41:00,72.4,64.8,29.89,ENE,66,8.0,16.0,77,0.00,SCT,SCT,0.00,82.4,WeatherDisplay:10.37,2013-12-26 02:41:00,
2013-12-25 16:51:00,72.4,65.2,29.89,ENE,66,7.0,21.0,78,0.00,SCT,SCT,0.00,67.2,WeatherDisplay:10.37,2013-12-26 02:51:00,
2013-12-25 17:01:00,71.1,65.7,29.90,ENE,67,6.0,15.0,83,0.00,SCT,SCT,0.00,56.4,WeatherDisplay:10.37,2013-12-26 03:01:00,
2013-12-25 17:11:00,70.1,64.7,29.90,ENE,76,7.0,15.0,83,0.00,SCT,SCT,0.00,31.2,WeatherDisplay:10.37,2013-12-26 03:11:00,
2013-12-25 17:21:00,69.3,63.9,29.90,East,84,7.0,15.0,83,0.00,SCT,SCT,0.00,19.4,WeatherDisplay:10.37,2013-12-26 03:21:00,
2013-12-25 17:31:00,68.6,63.6,29.91,East,87,5.0,13.0,84,0.01,RA,SCT,0.01,8.3,WeatherDisplay:10.37,2013-12-26 03:31:00,
2013-12-25 17:41:00,68.2,63.9,29.91,ENE,77,7.0,10.0,86,0.00,SCT,SCT,0.01,0.6,WeatherDisplay:10.37,2013-12-26 03:41:00,
2013-12-25 17:51:00,67.7,63.7,29.91,ENE,71,6.0,10.0,87,0.00,SCT,SCT,0.01,0.0,WeatherDisplay:10.37,2013-12-26 03:51:00,
2013-12-25 18:01:00,67.5,64.1,29.91,NE,56,5.0,10.0,89,0.00,SCT,SCT,0.01,0.0,WeatherDisplay:10.37,2013-12-26 04:01:00,
2013-12-25 18:11:00,67.1,63.8,29.91,ENE,68,8.0,14.0,89,0.00,SCT,SCT,0.01,0.0,WeatherDisplay:10.37,2013-12-26 04:11:00,
2013-12-25 18:21:00,67.0,63.6,29.92,ENE,57,8.0,14.0,89,0.00,SCT,SCT,0.01,0.0,WeatherDisplay:10.37,2013-12-26 04:21:00,
2013-12-25 18:31:00,67.0,63.9,29.92,ENE,58,7.0,15.0,90,0.01,RA,SCT,0.02,0.0,WeatherDisplay:10.37,2013-12-26 04:31:00,
2013-12-25 18:41:00,66.8,64.1,29.93,ENE,60,9.0,14.0,91,0.00,SCT,SCT,0.02,0.0,WeatherDisplay:10.37,2013-12-26 04:41:00,
2013-12-25 18:51:00,66.7,64.0,29.93,ENE,63,6.0,12.0,91,0.00,SCT,SCT,0.02,0.0,WeatherDisplay:10.37,2013-12-26 04:51:00,
2013-12-25 19:01:00,66.6,64.2,29.93,ENE,61,3.0,12.0,92,0.00,SCT,SCT,0.02,0.0,WeatherDisplay:10.37,2013-12-26 05:01:00,
2013-12-25 19:11:00,66.7,64.6,29.93,ENE,68,7.0,13.0,93,0.00,SCT,SCT,0.02,0.0,WeatherDisplay:10.37,2013-12-26 05:11:00,
2013-12-25 19:21:00,66.6,64.5,29.94,ENE,66,10.0,15.0,93,0.06,RA,SCT,0.08,0.0,WeatherDisplay:10.37,2013-12-26 05:21:00,
2013-12-25 19:31:00,66.6,64.5,29.94,ENE,61,5.0,15.0,93,0.03,RA,SCT,0.11,0.0,WeatherDisplay:10.37,2013-12-26 05:31:00,
2013-12-25 19:41:00,66.5,64.7,29.94,ENE,71,3.0,12.0,94,0.03,RA,SCT,0.14,0.0,WeatherDisplay:10.37,2013-12-26 05:41:00,
2013-12-25 19:51:00,66.5,64.4,29.94,ENE,65,7.0,13.0,93,0.00,SCT,SCT,0.14,0.0,WeatherDisplay:10.37,2013-12-26 05:51:00,
2013-12-25 20:01:00,66.3,64.2,29.94,ENE,63,6.0,16.0,93,0.04,RA,SCT,0.18,0.0,WeatherDisplay:10.37,2013-12-26 06:01:00,
2013-12-25 20:11:00,66.2,64.1,29.94,ENE,69,6.0,16.0,93,0.00,SCT,SCT,0.18,0.0,WeatherDisplay:10.37,2013-12-26 06:11:00,
2013-12-25 20:20:00,65.8,63.4,29.94,East,81,7.0,12.0,92,0.00,SCT,SCT,0.18,0.0,WeatherDisplay:10.37,2013-12-26 06:20:00,
2013-12-25 20:31:00,65.8,63.7,29.94,ENE,67,6.0,12.0,93,0.00,SCT,SCT,0.18,0.0,WeatherDisplay:10.37,2013-12-26 06:31:00,
2013-12-25 20:41:00,65.7,63.6,29.95,ENE,60,7.0,12.0,93,0.00,SCT,SCT,0.18,0.0,WeatherDisplay:10.37,2013-12-26 06:41:00,
2013-12-25 20:51:00,65.7,63.6,29.96,ENE,76,5.0,12.0,93,0.00,SCT,SCT,0.18,0.0,WeatherDisplay:10.37,2013-12-26 06:51:00,
2013-12-25 21:01:00,65.7,63.6,29.96,ENE,70,6.0,13.0,93,0.00,SCT,SCT,0.18,0.0,WeatherDisplay:10.37,2013-12-26 07:01:00,
2013-12-25 21:10:00,65.7,63.6,29.97,ENE,69,7.0,15.0,93,0.01,RA,SCT,0.19,0.0,WeatherDisplay:10.37,2013-12-26 07:10:00,
2013-12-25 21:20:00,65.7,63.6,29.97,ENE,62,8.0,14.0,93,0.02,RA,SCT,0.21,0.0,WeatherDisplay:10.37,2013-12-26 07:20:00,
2013-12-25 21:30:00,65.7,63.7,29.96,ENE,69,5.0,12.0,93,0.00,CLR,SCT,0.21,0.0,WeatherDisplay:10.37,2013-12-26 07:30:00,
2013-12-25 21:40:00,65.7,63.6,29.95,East,79,2.0,9.0,93,0.00,CLR,SCT,0.21,0.0,WeatherDisplay:10.37,2013-12-26 07:40:00,
2013-12-25 21:50:00,65.5,63.4,29.95,ENE,77,7.0,12.0,93,0.01,RA,SCT,0.22,0.0,WeatherDisplay:10.37,2013-12-26 07:50:00,
2013-12-25 22:00:00,65.4,63.3,29.95,ENE,64,8.0,15.0,93,0.00,CLR,SCT,0.22,0.0,WeatherDisplay:10.37,2013-12-26 08:00:00,
2013-12-25 22:10:00,65.2,62.8,29.95,ENE,69,6.0,15.0,92,0.00,CLR,SCT,0.22,0.0,WeatherDisplay:10.37,2013-12-26 08:10:00,
2013-12-25 22:20:00,64.9,62.5,29.95,ENE,61,9.0,15.0,92,0.00,CLR,SCT,0.22,0.0,WeatherDisplay:10.37,2013-12-26 08:20:00,
2013-12-25 22:30:00,64.9,62.5,29.95,East,79,6.0,13.0,92,0.00,CLR,SCT,0.22,0.0,WeatherDisplay:10.37,2013-12-26 08:30:00,
2013-12-25 22:40:00,64.7,62.3,29.95,ENE,70,8.0,13.0,92,0.00,CLR,SCT,0.22,0.0,WeatherDisplay:10.37,2013-12-26 08:40:00,
2013-12-25 22:50:00,64.8,62.4,29.95,ENE,74,7.0,17.0,92,0.00,CLR,SCT,0.22,0.0,WeatherDisplay:10.37,2013-12-26 08:50:00,
2013-12-25 23:00:00,64.8,62.4,29.95,ENE,76,8.0,13.0,92,0.00,CLR,SCT,0.22,0.0,WeatherDisplay:10.37,2013-12-26 09:00:00,
2013-12-25 23:10:00,64.9,62.5,29.95,ENE,72,6.0,16.0,92,0.00,CLR,SCT,0.22,0.0,WeatherDisplay:10.37,2013-12-26 09:10:00,
2013-12-25 23:20:00,64.8,62.4,29.95,ENE,77,6.0,12.0,92,0.00,CLR,SCT,0.22,0.0,WeatherDisplay:10.37,2013-12-26 09:20:00,
2013-12-25 23:30:00,64.8,62.4,29.94,ENE,72,7.0,13.0,92,0.00,CLR,SCT,0.22,0.0,WeatherDisplay:10.37,2013-12-26 09:30:00,
2013-12-25 23:40:00,64.6,61.9,29.95,ENE,75,8.0,14.0,91,0.00,CLR,SCT,0.22,0.0,WeatherDisplay:10.37,2013-12-26 09:40:00,
2013-12-25 23:50:00,64.5,61.8,29.95,ENE,67,10.0,15.0,91,0.00,CLR,SCT,0.22,0.0,WeatherDisplay:10.37,2013-12-26 09:50:00,